sensor_id;sensor_type;location;lat;lon;timestamp;P1;durP1;ratioP1;P2;durP2;ratioP2
51985;SDS011;38002;53.296;6.600;2023-12-20T00:01:40;9.23;;;1.60;;
51985;SDS011;38002;53.296;6.600;2023-12-20T00:06:41;13.27;;;1.37;;
51985;SDS011;38002;53.296;6.600;2023-12-20T00:11:41;7.90;;;1.52;;
51985;SDS011;38002;53.296;6.600;2023-12-20T00:16:42;14.40;;;1.63;;
51985;SDS011;38002;53.296;6.600;2023-12-20T00:21:42;6.83;;;1.43;;
51985;SDS011;38002;53.296;6.600;2023-12-20T00:26:43;7.72;;;1.20;;
51985;SDS011;38002;53.296;6.600;2023-12-20T00:31:43;19.02;;;1.63;;
51985;SDS011;38002;53.296;6.600;2023-12-20T00:36:44;20.53;;;2.43;;
51985;SDS011;38002;53.296;6.600;2023-12-20T00:41:44;13.40;;;2.03;;
51985;SDS011;38002;53.296;6.600;2023-12-20T00:46:45;10.32;;;1.85;;
51985;SDS011;38002;53.296;6.600;2023-12-20T00:51:46;8.37;;;1.53;;
51985;SDS011;38002;53.296;6.600;2023-12-20T00:56:47;10.43;;;1.40;;
51985;SDS011;38002;53.296;6.600;2023-12-20T01:01:48;20.10;;;3.10;;
51985;SDS011;38002;53.296;6.600;2023-12-20T01:06:48;15.05;;;1.45;;
51985;SDS011;38002;53.296;6.600;2023-12-20T01:11:49;10.60;;;1.33;;
51985;SDS011;38002;53.296;6.600;2023-12-20T01:16:49;5.37;;;1.80;;
51985;SDS011;38002;53.296;6.600;2023-12-20T01:21:50;8.13;;;1.30;;
51985;SDS011;38002;53.296;6.600;2023-12-20T01:26:50;17.23;;;1.90;;
51985;SDS011;38002;53.296;6.600;2023-12-20T01:31:51;16.07;;;1.90;;
51985;SDS011;38002;53.296;6.600;2023-12-20T01:36:51;7.23;;;2.10;;
51985;SDS011;38002;53.296;6.600;2023-12-20T01:41:52;6.20;;;1.65;;
51985;SDS011;38002;53.296;6.600;2023-12-20T01:46:52;12.18;;;2.88;;
51985;SDS011;38002;53.296;6.600;2023-12-20T01:51:52;7.80;;;1.70;;
51985;SDS011;38002;53.296;6.600;2023-12-20T01:56:53;10.67;;;2.03;;
51985;SDS011;38002;53.296;6.600;2023-12-20T02:01:54;12.87;;;2.43;;
51985;SDS011;38002;53.296;6.600;2023-12-20T02:06:55;11.90;;;1.50;;
51985;SDS011;38002;53.296;6.600;2023-12-20T02:11:56;19.40;;;2.97;;
51985;SDS011;38002;53.296;6.600;2023-12-20T02:16:56;14.67;;;2.40;;
51985;SDS011;38002;53.296;6.600;2023-12-20T02:27:10;7.38;;;1.92;;
51985;SDS011;38002;53.296;6.600;2023-12-20T02:32:11;20.90;;;1.80;;
51985;SDS011;38002;53.296;6.600;2023-12-20T02:37:12;22.40;;;3.20;;
51985;SDS011;38002;53.296;6.600;2023-12-20T02:42:12;20.02;;;2.42;;
51985;SDS011;38002;53.296;6.600;2023-12-20T02:47:13;11.70;;;1.85;;
51985;SDS011;38002;53.296;6.600;2023-12-20T02:52:13;16.03;;;2.73;;
51985;SDS011;38002;53.296;6.600;2023-12-20T02:57:14;19.60;;;3.57;;
51985;SDS011;38002;53.296;6.600;2023-12-20T03:02:14;17.83;;;2.05;;
51985;SDS011;38002;53.296;6.600;2023-12-20T03:07:15;18.92;;;3.50;;
51985;SDS011;38002;53.296;6.600;2023-12-20T03:12:16;18.30;;;2.47;;
51985;SDS011;38002;53.296;6.600;2023-12-20T03:17:16;21.13;;;2.67;;
51985;SDS011;38002;53.296;6.600;2023-12-20T03:22:17;14.73;;;3.13;;
51985;SDS011;38002;53.296;6.600;2023-12-20T03:27:17;18.73;;;3.58;;
51985;SDS011;38002;53.296;6.600;2023-12-20T03:32:18;12.63;;;1.83;;
51985;SDS011;38002;53.296;6.600;2023-12-20T03:37:18;14.30;;;1.90;;
51985;SDS011;38002;53.296;6.600;2023-12-20T03:42:19;12.20;;;1.90;;
51985;SDS011;38002;53.296;6.600;2023-12-20T03:47:19;15.27;;;2.07;;
51985;SDS011;38002;53.296;6.600;2023-12-20T03:52:19;18.30;;;2.73;;
51985;SDS011;38002;53.296;6.600;2023-12-20T03:57:20;16.08;;;3.63;;
51985;SDS011;38002;53.296;6.600;2023-12-20T04:02:20;28.95;;;3.42;;
51985;SDS011;38002;53.296;6.600;2023-12-20T04:07:21;18.30;;;3.63;;
51985;SDS011;38002;53.296;6.600;2023-12-20T04:12:22;12.07;;;1.73;;
51985;SDS011;38002;53.296;6.600;2023-12-20T04:17:23;23.42;;;4.10;;
51985;SDS011;38002;53.296;6.600;2023-12-20T04:22:23;28.57;;;3.17;;
51985;SDS011;38002;53.296;6.600;2023-12-20T04:27:23;21.48;;;3.30;;
51985;SDS011;38002;53.296;6.600;2023-12-20T04:32:24;22.13;;;3.20;;
51985;SDS011;38002;53.296;6.600;2023-12-20T04:37:24;21.35;;;4.00;;
51985;SDS011;38002;53.296;6.600;2023-12-20T04:42:25;24.50;;;3.27;;
51985;SDS011;38002;53.296;6.600;2023-12-20T04:47:25;20.13;;;3.27;;
51985;SDS011;38002;53.296;6.600;2023-12-20T04:52:26;27.27;;;4.57;;
51985;SDS011;38002;53.296;6.600;2023-12-20T04:57:26;19.58;;;3.25;;
51985;SDS011;38002;53.296;6.600;2023-12-20T05:02:27;25.23;;;2.83;;
51985;SDS011;38002;53.296;6.600;2023-12-20T05:07:27;20.35;;;3.38;;
51985;SDS011;38002;53.296;6.600;2023-12-20T05:12:28;22.17;;;2.53;;
51985;SDS011;38002;53.296;6.600;2023-12-20T05:17:28;22.42;;;3.65;;
51985;SDS011;38002;53.296;6.600;2023-12-20T05:22:29;27.52;;;3.45;;
51985;SDS011;38002;53.296;6.600;2023-12-20T05:27:29;19.92;;;4.00;;
51985;SDS011;38002;53.296;6.600;2023-12-20T05:32:30;21.02;;;2.42;;
51985;SDS011;38002;53.296;6.600;2023-12-20T05:37:31;17.42;;;3.50;;
51985;SDS011;38002;53.296;6.600;2023-12-20T05:42:31;18.95;;;2.85;;
51985;SDS011;38002;53.296;6.600;2023-12-20T05:47:32;22.00;;;3.13;;
51985;SDS011;38002;53.296;6.600;2023-12-20T05:52:32;28.83;;;3.23;;
51985;SDS011;38002;53.296;6.600;2023-12-20T05:57:33;27.67;;;3.95;;
51985;SDS011;38002;53.296;6.600;2023-12-20T06:02:33;27.83;;;3.33;;
51985;SDS011;38002;53.296;6.600;2023-12-20T06:07:34;19.73;;;3.13;;
51985;SDS011;38002;53.296;6.600;2023-12-20T06:12:34;32.30;;;3.65;;
51985;SDS011;38002;53.296;6.600;2023-12-20T06:17:36;18.80;;;2.97;;
51985;SDS011;38002;53.296;6.600;2023-12-20T06:22:36;27.37;;;3.77;;
51985;SDS011;38002;53.296;6.600;2023-12-20T06:27:37;30.07;;;4.37;;
51985;SDS011;38002;53.296;6.600;2023-12-20T06:32:37;17.23;;;2.83;;
51985;SDS011;38002;53.296;6.600;2023-12-20T06:37:39;18.13;;;2.58;;
51985;SDS011;38002;53.296;6.600;2023-12-20T06:42:42;32.80;;;3.50;;
51985;SDS011;38002;53.296;6.600;2023-12-20T06:47:42;21.30;;;3.05;;
51985;SDS011;38002;53.296;6.600;2023-12-20T06:52:43;30.48;;;3.67;;
51985;SDS011;38002;53.296;6.600;2023-12-20T06:57:43;37.00;;;4.00;;
51985;SDS011;38002;53.296;6.600;2023-12-20T07:02:44;26.88;;;3.25;;
51985;SDS011;38002;53.296;6.600;2023-12-20T07:07:44;24.10;;;3.77;;
51985;SDS011;38002;53.296;6.600;2023-12-20T07:12:46;21.48;;;4.38;;
51985;SDS011;38002;53.296;6.600;2023-12-20T07:17:48;29.27;;;3.78;;
51985;SDS011;38002;53.296;6.600;2023-12-20T07:22:49;19.73;;;4.00;;
51985;SDS011;38002;53.296;6.600;2023-12-20T07:27:50;27.97;;;4.37;;
51985;SDS011;38002;53.296;6.600;2023-12-20T07:32:51;24.38;;;3.42;;
51985;SDS011;38002;53.296;6.600;2023-12-20T07:37:52;17.63;;;4.32;;
51985;SDS011;38002;53.296;6.600;2023-12-20T07:42:52;28.20;;;4.33;;
51985;SDS011;38002;53.296;6.600;2023-12-20T07:47:53;22.08;;;3.50;;
51985;SDS011;38002;53.296;6.600;2023-12-20T08:15:41;17.05;;;3.05;;
51985;SDS011;38002;53.296;6.600;2023-12-20T08:20:42;32.67;;;3.60;;
51985;SDS011;38002;53.296;6.600;2023-12-20T08:25:42;16.07;;;3.27;;
51985;SDS011;38002;53.296;6.600;2023-12-20T08:30:43;3.53;;;0.80;;
51985;SDS011;38002;53.296;6.600;2023-12-20T08:35:43;3.53;;;0.70;;
51985;SDS011;38002;53.296;6.600;2023-12-20T08:40:44;3.37;;;0.53;;
51985;SDS011;38002;53.296;6.600;2023-12-20T08:45:44;5.93;;;1.15;;
51985;SDS011;38002;53.296;6.600;2023-12-20T08:50:45;6.57;;;1.15;;
51985;SDS011;38002;53.296;6.600;2023-12-20T08:55:46;6.57;;;1.17;;
51985;SDS011;38002;53.296;6.600;2023-12-20T09:00:47;7.07;;;1.33;;
51985;SDS011;38002;53.296;6.600;2023-12-20T09:05:47;8.73;;;1.40;;
51985;SDS011;38002;53.296;6.600;2023-12-20T09:10:48;8.43;;;1.33;;
51985;SDS011;38002;53.296;6.600;2023-12-20T09:15:48;13.47;;;1.47;;
51985;SDS011;38002;53.296;6.600;2023-12-20T09:20:49;6.70;;;1.00;;
51985;SDS011;38002;53.296;6.600;2023-12-20T09:25:49;14.32;;;1.75;;
51985;SDS011;38002;53.296;6.600;2023-12-20T09:30:49;4.10;;;1.33;;
51985;SDS011;38002;53.296;6.600;2023-12-20T09:35:50;11.60;;;1.48;;
51985;SDS011;38002;53.296;6.600;2023-12-20T09:40:50;9.63;;;1.27;;
51985;SDS011;38002;53.296;6.600;2023-12-20T09:45:52;6.53;;;0.90;;
51985;SDS011;38002;53.296;6.600;2023-12-20T09:50:54;3.63;;;1.02;;
51985;SDS011;38002;53.296;6.600;2023-12-20T09:55:58;9.33;;;0.83;;
51985;SDS011;38002;53.296;6.600;2023-12-20T10:01:02;4.70;;;0.80;;
51985;SDS011;38002;53.296;6.600;2023-12-20T10:06:03;3.95;;;1.05;;
51985;SDS011;38002;53.296;6.600;2023-12-20T10:11:04;7.63;;;1.50;;
51985;SDS011;38002;53.296;6.600;2023-12-20T10:16:05;8.47;;;1.53;;
51985;SDS011;38002;53.296;6.600;2023-12-20T10:21:06;9.45;;;1.45;;
51985;SDS011;38002;53.296;6.600;2023-12-20T10:26:10;10.25;;;1.80;;
51985;SDS011;38002;53.296;6.600;2023-12-20T10:31:25;13.88;;;1.92;;
51985;SDS011;38002;53.296;6.600;2023-12-20T10:36:33;14.25;;;2.38;;
51985;SDS011;38002;53.296;6.600;2023-12-20T10:41:34;14.75;;;2.25;;
51985;SDS011;38002;53.296;6.600;2023-12-20T10:46:41;15.70;;;1.67;;
51985;SDS011;38002;53.296;6.600;2023-12-20T10:51:47;19.92;;;1.75;;
51985;SDS011;38002;53.296;6.600;2023-12-20T10:56:48;15.90;;;2.80;;
51985;SDS011;38002;53.296;6.600;2023-12-20T11:01:52;8.68;;;2.22;;
51985;SDS011;38002;53.296;6.600;2023-12-20T11:06:58;16.90;;;2.42;;
51985;SDS011;38002;53.296;6.600;2023-12-20T11:12:41;12.40;;;2.10;;
51985;SDS011;38002;53.296;6.600;2023-12-20T11:17:54;16.42;;;2.10;;
51985;SDS011;38002;53.296;6.600;2023-12-20T11:22:57;11.07;;;1.77;;
51985;SDS011;38002;53.296;6.600;2023-12-20T11:28:06;14.77;;;2.30;;
51985;SDS011;38002;53.296;6.600;2023-12-20T11:33:09;13.82;;;2.20;;
51985;SDS011;38002;53.296;6.600;2023-12-20T11:38:09;12.60;;;1.73;;
51985;SDS011;38002;53.296;6.600;2023-12-20T11:43:10;4.47;;;1.43;;
51985;SDS011;38002;53.296;6.600;2023-12-20T11:48:11;10.10;;;2.22;;
51985;SDS011;38002;53.296;6.600;2023-12-20T11:53:13;21.70;;;3.05;;
51985;SDS011;38002;53.296;6.600;2023-12-20T11:58:14;18.90;;;2.60;;
51985;SDS011;38002;53.296;6.600;2023-12-20T12:03:17;14.32;;;3.05;;
51985;SDS011;38002;53.296;6.600;2023-12-20T12:08:18;15.90;;;3.00;;
51985;SDS011;38002;53.296;6.600;2023-12-20T12:13:18;26.92;;;3.22;;
51985;SDS011;38002;53.296;6.600;2023-12-20T12:18:19;14.17;;;1.87;;
51985;SDS011;38002;53.296;6.600;2023-12-20T12:23:23;12.17;;;2.10;;
51985;SDS011;38002;53.296;6.600;2023-12-20T12:28:27;17.60;;;1.67;;
51985;SDS011;38002;53.296;6.600;2023-12-20T12:33:32;21.85;;;2.28;;
51985;SDS011;38002;53.296;6.600;2023-12-20T12:38:33;17.47;;;1.70;;
51985;SDS011;38002;53.296;6.600;2023-12-20T12:43:34;15.20;;;2.80;;
51985;SDS011;38002;53.296;6.600;2023-12-20T12:48:35;13.07;;;1.90;;
51985;SDS011;38002;53.296;6.600;2023-12-20T12:53:35;10.25;;;1.35;;
51985;SDS011;38002;53.296;6.600;2023-12-20T12:58:35;7.30;;;1.40;;
51985;SDS011;38002;53.296;6.600;2023-12-20T13:03:36;16.97;;;1.83;;
51985;SDS011;38002;53.296;6.600;2023-12-20T13:13:38;12.40;;;1.90;;
51985;SDS011;38002;53.296;6.600;2023-12-20T13:18:39;10.65;;;1.85;;
51985;SDS011;38002;53.296;6.600;2023-12-20T13:23:42;8.15;;;1.48;;
51985;SDS011;38002;53.296;6.600;2023-12-20T13:28:43;7.13;;;1.42;;
51985;SDS011;38002;53.296;6.600;2023-12-20T13:33:43;6.10;;;1.15;;
51985;SDS011;38002;53.296;6.600;2023-12-20T13:38:44;12.17;;;2.00;;
51985;SDS011;38002;53.296;6.600;2023-12-20T13:43:44;5.65;;;1.35;;
51985;SDS011;38002;53.296;6.600;2023-12-20T13:48:45;6.83;;;1.33;;
51985;SDS011;38002;53.296;6.600;2023-12-20T13:53:46;10.07;;;1.20;;
51985;SDS011;38002;53.296;6.600;2023-12-20T13:58:48;8.50;;;1.60;;
51985;SDS011;38002;53.296;6.600;2023-12-20T14:03:50;5.13;;;1.67;;
51985;SDS011;38002;53.296;6.600;2023-12-20T14:08:51;8.38;;;1.05;;
51985;SDS011;38002;53.296;6.600;2023-12-20T14:13:51;5.88;;;1.10;;
51985;SDS011;38002;53.296;6.600;2023-12-20T14:18:52;2.53;;;0.90;;
51985;SDS011;38002;53.296;6.600;2023-12-20T14:23:53;8.20;;;1.35;;
51985;SDS011;38002;53.296;6.600;2023-12-20T14:28:54;10.48;;;1.80;;
51985;SDS011;38002;53.296;6.600;2023-12-20T14:33:55;9.47;;;1.20;;
51985;SDS011;38002;53.296;6.600;2023-12-20T14:38:55;4.72;;;0.80;;
51985;SDS011;38002;53.296;6.600;2023-12-20T14:43:56;5.27;;;0.77;;
51985;SDS011;38002;53.296;6.600;2023-12-20T14:48:56;8.10;;;0.83;;
51985;SDS011;38002;53.296;6.600;2023-12-20T14:53:57;6.03;;;1.77;;
51985;SDS011;38002;53.296;6.600;2023-12-20T14:58:57;3.10;;;1.00;;
51985;SDS011;38002;53.296;6.600;2023-12-20T15:03:58;7.90;;;1.52;;
51985;SDS011;38002;53.296;6.600;2023-12-20T15:08:59;8.23;;;1.63;;
51985;SDS011;38002;53.296;6.600;2023-12-20T15:14:00;5.17;;;1.70;;
51985;SDS011;38002;53.296;6.600;2023-12-20T15:19:00;7.80;;;1.40;;
51985;SDS011;38002;53.296;6.600;2023-12-20T15:24:01;10.52;;;1.52;;
51985;SDS011;38002;53.296;6.600;2023-12-20T15:29:14;5.18;;;1.15;;
51985;SDS011;38002;53.296;6.600;2023-12-20T15:34:14;7.07;;;1.27;;
51985;SDS011;38002;53.296;6.600;2023-12-20T15:39:15;7.23;;;1.57;;
51985;SDS011;38002;53.296;6.600;2023-12-20T15:44:15;6.15;;;1.63;;
51985;SDS011;38002;53.296;6.600;2023-12-20T15:49:16;11.17;;;1.40;;
51985;SDS011;38002;53.296;6.600;2023-12-20T15:54:18;6.43;;;1.45;;
51985;SDS011;38002;53.296;6.600;2023-12-20T15:59:19;8.57;;;1.42;;
51985;SDS011;38002;53.296;6.600;2023-12-20T16:04:19;5.88;;;1.42;;
51985;SDS011;38002;53.296;6.600;2023-12-20T16:09:20;14.75;;;1.17;;
51985;SDS011;38002;53.296;6.600;2023-12-20T16:14:20;13.43;;;2.30;;
51985;SDS011;38002;53.296;6.600;2023-12-20T16:19:21;13.70;;;2.13;;
51985;SDS011;38002;53.296;6.600;2023-12-20T16:24:21;9.33;;;2.13;;
51985;SDS011;38002;53.296;6.600;2023-12-20T16:29:22;18.90;;;2.13;;
51985;SDS011;38002;53.296;6.600;2023-12-20T16:34:22;5.53;;;1.50;;
51985;SDS011;38002;53.296;6.600;2023-12-20T16:39:23;15.43;;;2.50;;
51985;SDS011;38002;53.296;6.600;2023-12-20T16:44:23;12.27;;;2.27;;
51985;SDS011;38002;53.296;6.600;2023-12-20T16:49:24;17.83;;;2.60;;
51985;SDS011;38002;53.296;6.600;2023-12-20T16:54:24;8.65;;;2.25;;
51985;SDS011;38002;53.296;6.600;2023-12-20T16:59:25;34.78;;;3.17;;
51985;SDS011;38002;53.296;6.600;2023-12-20T17:04:25;14.47;;;2.20;;
51985;SDS011;38002;53.296;6.600;2023-12-20T17:09:26;17.63;;;2.60;;
51985;SDS011;38002;53.296;6.600;2023-12-20T17:14:27;12.07;;;2.37;;
51985;SDS011;38002;53.296;6.600;2023-12-20T17:19:27;12.20;;;2.40;;
51985;SDS011;38002;53.296;6.600;2023-12-20T17:24:30;14.45;;;2.83;;
51985;SDS011;38002;53.296;6.600;2023-12-20T17:29:30;10.57;;;2.28;;
51985;SDS011;38002;53.296;6.600;2023-12-20T17:34:30;13.70;;;2.88;;
51985;SDS011;38002;53.296;6.600;2023-12-20T17:39:31;21.73;;;3.13;;
51985;SDS011;38002;53.296;6.600;2023-12-20T17:44:31;14.70;;;2.90;;
51985;SDS011;38002;53.296;6.600;2023-12-20T17:49:32;16.33;;;3.50;;
51985;SDS011;38002;53.296;6.600;2023-12-20T17:54:33;9.17;;;2.93;;
51985;SDS011;38002;53.296;6.600;2023-12-20T17:59:34;10.87;;;3.13;;
51985;SDS011;38002;53.296;6.600;2023-12-20T18:04:34;7.80;;;2.92;;
51985;SDS011;38002;53.296;6.600;2023-12-20T18:09:35;14.53;;;3.00;;
51985;SDS011;38002;53.296;6.600;2023-12-20T18:14:35;6.40;;;2.05;;
51985;SDS011;38002;53.296;6.600;2023-12-20T18:19:36;7.68;;;2.47;;
51985;SDS011;38002;53.296;6.600;2023-12-20T18:24:36;5.80;;;2.00;;
51985;SDS011;38002;53.296;6.600;2023-12-20T18:29:37;2.80;;;1.90;;
51985;SDS011;38002;53.296;6.600;2023-12-20T18:34:37;6.97;;;2.63;;
51985;SDS011;38002;53.296;6.600;2023-12-20T18:39:38;3.28;;;1.23;;
51985;SDS011;38002;53.296;6.600;2023-12-20T18:44:38;2.13;;;1.60;;
51985;SDS011;38002;53.296;6.600;2023-12-20T18:49:39;3.30;;;1.58;;
51985;SDS011;38002;53.296;6.600;2023-12-20T18:54:39;2.77;;;1.63;;
51985;SDS011;38002;53.296;6.600;2023-12-20T18:59:40;2.90;;;1.48;;
51985;SDS011;38002;53.296;6.600;2023-12-20T19:04:41;2.97;;;1.77;;
51985;SDS011;38002;53.296;6.600;2023-12-20T19:09:41;4.00;;;2.10;;
51985;SDS011;38002;53.296;6.600;2023-12-20T19:14:41;3.90;;;2.42;;
51985;SDS011;38002;53.296;6.600;2023-12-20T19:19:43;7.03;;;2.10;;
51985;SDS011;38002;53.296;6.600;2023-12-20T19:24:44;6.53;;;3.03;;
51985;SDS011;38002;53.296;6.600;2023-12-20T19:29:44;3.22;;;1.92;;
51985;SDS011;38002;53.296;6.600;2023-12-20T19:34:45;2.97;;;1.85;;
51985;SDS011;38002;53.296;6.600;2023-12-20T19:39:45;6.18;;;2.15;;
51985;SDS011;38002;53.296;6.600;2023-12-20T19:44:46;5.40;;;1.90;;
51985;SDS011;38002;53.296;6.600;2023-12-20T19:49:46;10.17;;;2.17;;
51985;SDS011;38002;53.296;6.600;2023-12-20T19:54:47;5.20;;;1.50;;
51985;SDS011;38002;53.296;6.600;2023-12-20T19:59:47;8.63;;;2.30;;
51985;SDS011;38002;53.296;6.600;2023-12-20T20:04:48;7.27;;;2.23;;
51985;SDS011;38002;53.296;6.600;2023-12-20T20:09:49;4.20;;;1.87;;
51985;SDS011;38002;53.296;6.600;2023-12-20T20:14:50;8.00;;;2.37;;
51985;SDS011;38002;53.296;6.600;2023-12-20T20:19:50;10.30;;;2.53;;
51985;SDS011;38002;53.296;6.600;2023-12-20T20:24:51;17.88;;;3.55;;
51985;SDS011;38002;53.296;6.600;2023-12-20T20:29:51;10.37;;;3.40;;
51985;SDS011;38002;53.296;6.600;2023-12-20T20:34:52;21.50;;;4.53;;
51985;SDS011;38002;53.296;6.600;2023-12-20T20:39:53;19.20;;;3.63;;
51985;SDS011;38002;53.296;6.600;2023-12-20T20:44:53;20.90;;;3.70;;
51985;SDS011;38002;53.296;6.600;2023-12-20T20:49:54;27.53;;;3.67;;
51985;SDS011;38002;53.296;6.600;2023-12-20T20:54:54;33.65;;;3.78;;
51985;SDS011;38002;53.296;6.600;2023-12-20T20:59:55;24.27;;;3.67;;
51985;SDS011;38002;53.296;6.600;2023-12-20T21:04:55;18.02;;;3.03;;
51985;SDS011;38002;53.296;6.600;2023-12-20T21:09:56;18.35;;;3.83;;
51985;SDS011;38002;53.296;6.600;2023-12-20T21:14:56;19.27;;;3.70;;
51985;SDS011;38002;53.296;6.600;2023-12-20T21:19:57;34.70;;;4.53;;
51985;SDS011;38002;53.296;6.600;2023-12-20T21:24:57;27.80;;;3.85;;
51985;SDS011;38002;53.296;6.600;2023-12-20T21:29:58;20.50;;;4.47;;
51985;SDS011;38002;53.296;6.600;2023-12-20T21:34:59;30.67;;;4.22;;
51985;SDS011;38002;53.296;6.600;2023-12-20T21:39:59;20.27;;;3.93;;
51985;SDS011;38002;53.296;6.600;2023-12-20T21:45:00;29.55;;;3.40;;
51985;SDS011;38002;53.296;6.600;2023-12-20T21:50:00;24.75;;;3.60;;
51985;SDS011;38002;53.296;6.600;2023-12-20T21:55:01;25.07;;;3.23;;
51985;SDS011;38002;53.296;6.600;2023-12-20T22:00:03;38.85;;;3.75;;
51985;SDS011;38002;53.296;6.600;2023-12-20T22:05:03;19.65;;;3.15;;
51985;SDS011;38002;53.296;6.600;2023-12-20T22:10:04;27.20;;;3.10;;
51985;SDS011;38002;53.296;6.600;2023-12-20T22:15:05;25.33;;;3.97;;
51985;SDS011;38002;53.296;6.600;2023-12-20T22:20:06;14.23;;;2.87;;
51985;SDS011;38002;53.296;6.600;2023-12-20T22:25:07;27.90;;;3.53;;
51985;SDS011;38002;53.296;6.600;2023-12-20T22:30:08;20.13;;;2.93;;
51985;SDS011;38002;53.296;6.600;2023-12-20T22:35:09;26.50;;;3.08;;
51985;SDS011;38002;53.296;6.600;2023-12-20T22:40:11;27.27;;;4.18;;
51985;SDS011;38002;53.296;6.600;2023-12-20T22:45:12;23.48;;;3.45;;
51985;SDS011;38002;53.296;6.600;2023-12-20T22:50:13;22.70;;;3.53;;
51985;SDS011;38002;53.296;6.600;2023-12-20T22:55:13;21.07;;;3.87;;
51985;SDS011;38002;53.296;6.600;2023-12-20T23:00:14;17.60;;;3.27;;
51985;SDS011;38002;53.296;6.600;2023-12-20T23:05:21;14.73;;;3.30;;
51985;SDS011;38002;53.296;6.600;2023-12-20T23:10:21;28.60;;;3.08;;
51985;SDS011;38002;53.296;6.600;2023-12-20T23:15:26;19.63;;;3.20;;
51985;SDS011;38002;53.296;6.600;2023-12-20T23:20:27;16.92;;;3.38;;
51985;SDS011;38002;53.296;6.600;2023-12-20T23:25:27;23.27;;;3.80;;
51985;SDS011;38002;53.296;6.600;2023-12-20T23:30:28;24.30;;;3.25;;
51985;SDS011;38002;53.296;6.600;2023-12-20T23:35:29;22.30;;;4.20;;
51985;SDS011;38002;53.296;6.600;2023-12-20T23:40:29;17.60;;;3.57;;
51985;SDS011;38002;53.296;6.600;2023-12-20T23:45:30;23.43;;;3.37;;
51985;SDS011;38002;53.296;6.600;2023-12-20T23:50:32;20.30;;;2.95;;
51985;SDS011;38002;53.296;6.600;2023-12-20T23:55:32;16.70;;;3.85;;
